Weather at Bergen Seaplane Base, Sandviken

Public forecast

Using degrees Celsius for public forecast. Weather courtesy of forecast.io.

Closest aviation weather report (METAR) to Bergen Seaplane Base, Sandviken

Closest report is Bergen Airport, Flesland, 7.5 nm (13.9 km) SSW.

2023/09/24 12:50 (retrieved 37 minutes ago)

ENBR 241250Z 13015KT 9999 -RA FEW035 BKN070 13/08 Q1014 TEMPO 15018G28KT RA RMK WIND 1200FT 13029KT

Closest aviation forecast (TAF) to Bergen Seaplane Base, Sandviken

Closest forecast is Bergen Airport, Flesland, 7.5 nm (13.9 km) SSW.

2023/09/24 12:37 (retrieved 50 minutes ago)

TAF ENBR 241100Z 2412/2512 14012KT 9999 BKN030 TEMPO 2413/2416 RA TEMPO 2416/2422 15018G28KT RA BKN012 BECMG 2422/2424 16025G35KT TEMPO 2422/2508 3000 SHRA BR BKN007 SCT015CB BECMG 2508/2510 19022KT